Terminal Aerodrome Forecast
Issued by NWS

Home | Current Version | Previous Version | Text Only | Print | Product List | Glossary On
Versions: 1 2 3 4 5 6 7 8 9 10 11 12 13 14 15 16 17 18 19
000
FTUS45 KPIH 011100
TAFSUN
TAF
KSUN 011120Z 0112/0212 VRB05KT P6SM SCT060 BKN100
     FM011700 13007KT P6SM FEW120 SCT250
     FM020200 30007KT P6SM SCT250
      AMD LTD TO CLD VIS AND WIND TIL 011300=

USA.gov is the U.S. government's official web portal to all federal, state and local government web resources and services.